sensor_id;sensor_type;location;lat;lon;timestamp;pressure;altitude;pressure_sealevel;temperature;humidity
78383;BME280;67668;52.294;4.692;2023-05-07T00:04:28;101703.66;;;17.79;67.94
78383;BME280;67668;52.294;4.692;2023-05-07T00:06:54;101698.78;;;17.74;68.09
78383;BME280;67668;52.294;4.692;2023-05-07T00:09:20;101698.97;;;17.73;68.14
78383;BME280;67668;52.294;4.692;2023-05-07T00:11:46;101696.44;;;17.71;67.88
78383;BME280;67668;52.294;4.692;2023-05-07T00:14:11;101707.50;;;17.68;68.13
78383;BME280;67668;52.294;4.692;2023-05-07T00:16:37;101705.16;;;17.65;68.05
78383;BME280;67668;52.294;4.692;2023-05-07T00:19:03;101704.50;;;17.63;67.96
78383;BME280;67668;52.294;4.692;2023-05-07T00:21:29;101713.50;;;17.62;68.13
78383;BME280;67668;52.294;4.692;2023-05-07T00:23:54;101703.13;;;17.59;67.91
78383;BME280;67668;52.294;4.692;2023-05-07T00:26:19;101706.16;;;17.56;67.60
78383;BME280;67668;52.294;4.692;2023-05-07T00:28:45;101710.78;;;17.54;68.46
78383;BME280;67668;52.294;4.692;2023-05-07T00:31:12;101704.91;;;17.50;68.90
78383;BME280;67668;52.294;4.692;2023-05-07T00:33:38;101705.25;;;17.47;69.17
78383;BME280;67668;52.294;4.692;2023-05-07T00:36:07;101700.09;;;17.46;68.96
78383;BME280;67668;52.294;4.692;2023-05-07T00:38:33;101699.25;;;17.45;69.04
78383;BME280;67668;52.294;4.692;2023-05-07T00:40:58;101702.25;;;17.42;69.11
78383;BME280;67668;52.294;4.692;2023-05-07T00:43:24;101699.06;;;17.39;68.56
78383;BME280;67668;52.294;4.692;2023-05-07T00:45:49;101700.06;;;17.38;68.61
78383;BME280;67668;52.294;4.692;2023-05-07T00:48:15;101698.56;;;17.35;69.35
78383;BME280;67668;52.294;4.692;2023-05-07T00:50:42;101696.22;;;17.32;68.91
78383;BME280;67668;52.294;4.692;2023-05-07T00:53:08;101695.38;;;17.32;69.20
78383;BME280;67668;52.294;4.692;2023-05-07T00:55:35;101695.53;;;17.30;69.06
78383;BME280;67668;52.294;4.692;2023-05-07T00:58:00;101695.69;;;17.29;68.75
78383;BME280;67668;52.294;4.692;2023-05-07T01:00:29;101697.69;;;17.27;69.06
78383;BME280;67668;52.294;4.692;2023-05-07T01:02:54;101698.00;;;17.24;69.16
78383;BME280;67668;52.294;4.692;2023-05-07T01:05:22;101712.75;;;17.20;69.25
78383;BME280;67668;52.294;4.692;2023-05-07T01:07:49;101708.88;;;17.14;69.65
78383;BME280;67668;52.294;4.692;2023-05-07T01:10:15;101703.00;;;17.11;69.83
78383;BME280;67668;52.294;4.692;2023-05-07T01:12:41;101702.47;;;17.07;69.86
78383;BME280;67668;52.294;4.692;2023-05-07T01:15:08;101700.84;;;17.06;69.85
78383;BME280;67668;52.294;4.692;2023-05-07T01:17:39;101690.28;;;17.04;70.19
78383;BME280;67668;52.294;4.692;2023-05-07T01:20:05;101688.59;;;17.03;69.80
78383;BME280;67668;52.294;4.692;2023-05-07T01:22:33;101691.28;;;17.03;69.84
78383;BME280;67668;52.294;4.692;2023-05-07T01:25:00;101687.94;;;17.01;70.04
78383;BME280;67668;52.294;4.692;2023-05-07T01:27:27;101691.59;;;17.00;70.46
78383;BME280;67668;52.294;4.692;2023-05-07T01:29:52;101678.41;;;16.99;70.46
78383;BME280;67668;52.294;4.692;2023-05-07T01:32:33;101679.41;;;16.98;70.25
78383;BME280;67668;52.294;4.692;2023-05-07T01:35:02;101681.56;;;16.94;70.33
78383;BME280;67668;52.294;4.692;2023-05-07T01:37:28;101679.06;;;16.93;70.50
78383;BME280;67668;52.294;4.692;2023-05-07T01:39:55;101682.72;;;16.92;70.74
78383;BME280;67668;52.294;4.692;2023-05-07T01:42:21;101685.53;;;16.90;70.66
78383;BME280;67668;52.294;4.692;2023-05-07T01:44:48;101680.38;;;16.89;71.07
78383;BME280;67668;52.294;4.692;2023-05-07T01:47:14;101682.22;;;16.88;71.22
78383;BME280;67668;52.294;4.692;2023-05-07T01:49:41;101679.72;;;16.87;70.73
78383;BME280;67668;52.294;4.692;2023-05-07T01:52:09;101675.50;;;16.84;71.37
78383;BME280;67668;52.294;4.692;2023-05-07T01:54:35;101672.00;;;16.84;70.89
78383;BME280;67668;52.294;4.692;2023-05-07T01:57:00;101674.00;;;16.82;71.65
78383;BME280;67668;52.294;4.692;2023-05-07T01:59:26;101682.03;;;16.82;71.02
78383;BME280;67668;52.294;4.692;2023-05-07T02:01:51;101677.84;;;16.79;71.82
78383;BME280;67668;52.294;4.692;2023-05-07T02:04:17;101681.00;;;16.75;71.59
78383;BME280;67668;52.294;4.692;2023-05-07T02:06:43;101675.13;;;16.71;72.06
78383;BME280;67668;52.294;4.692;2023-05-07T02:09:08;101677.13;;;16.69;71.49
78383;BME280;67668;52.294;4.692;2023-05-07T02:11:34;101679.94;;;16.68;71.92
78383;BME280;67668;52.294;4.692;2023-05-07T02:13:59;101679.28;;;16.66;71.82
78383;BME280;67668;52.294;4.692;2023-05-07T02:16:25;101681.13;;;16.65;72.20
78383;BME280;67668;52.294;4.692;2023-05-07T02:18:50;101684.78;;;16.64;72.56
78383;BME280;67668;52.294;4.692;2023-05-07T02:21:15;101668.22;;;16.61;71.94
78383;BME280;67668;52.294;4.692;2023-05-07T02:23:41;101678.78;;;16.62;71.80
78383;BME280;67668;52.294;4.692;2023-05-07T02:26:06;101683.44;;;16.60;72.04
78383;BME280;67668;52.294;4.692;2023-05-07T02:28:32;101684.44;;;16.59;72.35
78383;BME280;67668;52.294;4.692;2023-05-07T02:30:58;101684.59;;;16.58;72.33
78383;BME280;67668;52.294;4.692;2023-05-07T02:33:24;101691.09;;;16.55;72.18
78383;BME280;67668;52.294;4.692;2023-05-07T02:35:50;101690.41;;;16.53;72.50
78383;BME280;67668;52.294;4.692;2023-05-07T02:38:23;101696.72;;;16.52;72.67
78383;BME280;67668;52.294;4.692;2023-05-07T02:40:48;101696.22;;;16.48;72.62
78383;BME280;67668;52.294;4.692;2023-05-07T02:43:14;101697.19;;;16.47;72.62
78383;BME280;67668;52.294;4.692;2023-05-07T02:45:39;101696.53;;;16.45;72.76
78383;BME280;67668;52.294;4.692;2023-05-07T02:48:05;101693.72;;;16.47;72.42
78383;BME280;67668;52.294;4.692;2023-05-07T02:50:33;101689.19;;;16.47;72.82
78383;BME280;67668;52.294;4.692;2023-05-07T02:52:58;101689.19;;;16.47;72.57
78383;BME280;67668;52.294;4.692;2023-05-07T02:55:24;101683.16;;;16.45;73.00
78383;BME280;67668;52.294;4.692;2023-05-07T02:57:50;101690.19;;;16.46;72.88
78383;BME280;67668;52.294;4.692;2023-05-07T03:00:17;101687.34;;;16.48;73.14
78383;BME280;67668;52.294;4.692;2023-05-07T03:03:03;101689.03;;;16.49;73.08
78383;BME280;67668;52.294;4.692;2023-05-07T03:05:48;101697.38;;;16.46;72.82
78383;BME280;67668;52.294;4.692;2023-05-07T03:08:13;101700.19;;;16.44;73.07
78383;BME280;67668;52.294;4.692;2023-05-07T03:10:39;101688.66;;;16.44;72.64
78383;BME280;67668;52.294;4.692;2023-05-07T03:13:04;101695.03;;;16.43;72.62
78383;BME280;67668;52.294;4.692;2023-05-07T03:15:30;101690.66;;;16.42;72.90
78383;BME280;67668;52.294;4.692;2023-05-07T03:17:55;101690.66;;;16.42;72.57
78383;BME280;67668;52.294;4.692;2023-05-07T03:20:21;101684.47;;;16.41;72.61
78383;BME280;67668;52.294;4.692;2023-05-07T03:22:46;101684.34;;;16.43;72.96
78383;BME280;67668;52.294;4.692;2023-05-07T03:25:12;101685.31;;;16.42;72.67
78383;BME280;67668;52.294;4.692;2023-05-07T03:27:37;101684.47;;;16.41;72.69
78383;BME280;67668;52.294;4.692;2023-05-07T03:30:03;101682.81;;;16.40;72.61
78383;BME280;67668;52.294;4.692;2023-05-07T03:32:29;101688.16;;;16.40;72.77
78383;BME280;67668;52.294;4.692;2023-05-07T03:34:54;101677.63;;;16.39;72.38
78383;BME280;67668;52.294;4.692;2023-05-07T03:37:21;101677.75;;;16.37;72.25
78383;BME280;67668;52.294;4.692;2023-05-07T03:39:47;101678.09;;;16.34;72.59
78383;BME280;67668;52.294;4.692;2023-05-07T03:42:13;101678.94;;;16.35;72.73
78383;BME280;67668;52.294;4.692;2023-05-07T03:44:38;101678.94;;;16.35;72.82
78383;BME280;67668;52.294;4.692;2023-05-07T03:47:04;101678.09;;;16.34;72.70
78383;BME280;67668;52.294;4.692;2023-05-07T03:49:29;101682.63;;;16.34;72.76
78383;BME280;67668;52.294;4.692;2023-05-07T03:51:55;101671.94;;;16.34;72.75
78383;BME280;67668;52.294;4.692;2023-05-07T03:54:20;101667.56;;;16.33;72.89
78383;BME280;67668;52.294;4.692;2023-05-07T03:56:46;101676.44;;;16.33;72.92
78383;BME280;67668;52.294;4.692;2023-05-07T03:59:12;101687.97;;;16.34;73.00
78383;BME280;67668;52.294;4.692;2023-05-07T04:01:38;101687.97;;;16.34;73.14
78383;BME280;67668;52.294;4.692;2023-05-07T04:04:03;101687.13;;;16.33;73.11
78383;BME280;67668;52.294;4.692;2023-05-07T04:06:29;101688.94;;;16.33;72.86
78383;BME280;67668;52.294;4.692;2023-05-07T04:08:55;101687.25;;;16.32;73.28
78383;BME280;67668;52.294;4.692;2023-05-07T04:11:20;101686.41;;;16.31;73.00
78383;BME280;67668;52.294;4.692;2023-05-07T04:13:45;101692.59;;;16.32;72.93
78383;BME280;67668;52.294;4.692;2023-05-07T04:16:11;101691.75;;;16.31;72.67
78383;BME280;67668;52.294;4.692;2023-05-07T04:18:36;101691.94;;;16.30;72.73
78383;BME280;67668;52.294;4.692;2023-05-07T04:21:02;101689.41;;;16.28;72.75
78383;BME280;67668;52.294;4.692;2023-05-07T04:23:27;101698.41;;;16.27;72.63
78383;BME280;67668;52.294;4.692;2023-05-07T04:25:53;101700.41;;;16.25;72.73
78383;BME280;67668;52.294;4.692;2023-05-07T04:28:19;101697.06;;;16.23;72.94
78383;BME280;67668;52.294;4.692;2023-05-07T04:30:45;101693.69;;;16.21;72.72
78383;BME280;67668;52.294;4.692;2023-05-07T04:33:11;101696.56;;;16.20;72.81
78383;BME280;67668;52.294;4.692;2023-05-07T04:35:37;101698.19;;;16.21;73.08
78383;BME280;67668;52.294;4.692;2023-05-07T04:38:02;101697.41;;;16.20;72.98
78383;BME280;67668;52.294;4.692;2023-05-07T04:40:27;101694.88;;;16.19;73.01
78383;BME280;67668;52.294;4.692;2023-05-07T04:42:53;101693.03;;;16.19;73.05
78383;BME280;67668;52.294;4.692;2023-05-07T04:45:19;101693.19;;;16.18;72.84
78383;BME280;67668;52.294;4.692;2023-05-07T04:47:45;101693.19;;;16.18;73.08
78383;BME280;67668;52.294;4.692;2023-05-07T04:50:10;101699.53;;;16.17;72.78
78383;BME280;67668;52.294;4.692;2023-05-07T04:52:36;101700.53;;;16.16;73.06
78383;BME280;67668;52.294;4.692;2023-05-07T04:55:01;101688.16;;;16.15;73.28
78383;BME280;67668;52.294;4.692;2023-05-07T04:57:27;101697.84;;;16.16;73.12
78383;BME280;67668;52.294;4.692;2023-05-07T04:59:53;101686.50;;;16.14;73.13
78383;BME280;67668;52.294;4.692;2023-05-07T05:02:19;101698.00;;;16.14;73.26
78383;BME280;67668;52.294;4.692;2023-05-07T05:04:45;101701.81;;;16.12;72.71
78383;BME280;67668;52.294;4.692;2023-05-07T05:07:10;101699.47;;;16.09;72.74
78383;BME280;67668;52.294;4.692;2023-05-07T05:09:36;101703.13;;;16.08;73.24
78383;BME280;67668;52.294;4.692;2023-05-07T05:12:01;101711.84;;;16.10;73.20
78383;BME280;67668;52.294;4.692;2023-05-07T05:14:26;101706.50;;;16.10;73.27
78383;BME280;67668;52.294;4.692;2023-05-07T05:16:52;101710.31;;;16.07;73.29
78383;BME280;67668;52.294;4.692;2023-05-07T05:19:17;101714.13;;;16.04;73.06
78383;BME280;67668;52.294;4.692;2023-05-07T05:21:43;101707.13;;;16.03;73.23
78383;BME280;67668;52.294;4.692;2023-05-07T05:24:08;101710.78;;;16.02;73.42
78383;BME280;67668;52.294;4.692;2023-05-07T05:26:34;101711.63;;;16.03;73.32
78383;BME280;67668;52.294;4.692;2023-05-07T05:28:59;101716.13;;;16.02;73.52
78383;BME280;67668;52.294;4.692;2023-05-07T05:31:25;101721.47;;;16.02;73.78
78383;BME280;67668;52.294;4.692;2023-05-07T05:33:50;101720.63;;;16.02;73.65
78383;BME280;67668;52.294;4.692;2023-05-07T05:36:17;101727.78;;;16.01;73.53
78383;BME280;67668;52.294;4.692;2023-05-07T05:38:42;101723.28;;;16.02;73.89
78383;BME280;67668;52.294;4.692;2023-05-07T05:41:09;101727.66;;;16.03;74.01
78383;BME280;67668;52.294;4.692;2023-05-07T05:43:34;101729.34;;;16.04;73.83
78383;BME280;67668;52.294;4.692;2023-05-07T05:46:00;101731.81;;;16.06;74.20
78383;BME280;67668;52.294;4.692;2023-05-07T05:48:26;101734.81;;;16.02;74.23
78383;BME280;67668;52.294;4.692;2023-05-07T05:50:51;101732.28;;;16.01;74.47
78383;BME280;67668;52.294;4.692;2023-05-07T05:53:17;101733.97;;;16.02;74.35
78383;BME280;67668;52.294;4.692;2023-05-07T05:55:42;101732.13;;;16.02;74.56
78383;BME280;67668;52.294;4.692;2023-05-07T05:58:09;101740.81;;;16.04;75.03
78383;BME280;67668;52.294;4.692;2023-05-07T06:00:34;101740.00;;;16.04;75.01
78383;BME280;67668;52.294;4.692;2023-05-07T06:03:00;101739.31;;;16.02;75.00
78383;BME280;67668;52.294;4.692;2023-05-07T06:05:25;101747.00;;;16.05;75.06
78383;BME280;67668;52.294;4.692;2023-05-07T06:07:51;101747.00;;;16.05;75.10
78383;BME280;67668;52.294;4.692;2023-05-07T06:10:16;101756.03;;;16.04;74.72
78383;BME280;67668;52.294;4.692;2023-05-07T06:12:42;101751.50;;;16.04;74.74
78383;BME280;67668;52.294;4.692;2023-05-07T06:15:07;101754.88;;;16.07;74.77
78383;BME280;67668;52.294;4.692;2023-05-07T06:17:33;101758.22;;;16.09;74.65
78383;BME280;67668;52.294;4.692;2023-05-07T06:19:59;101765.25;;;16.10;74.61
78383;BME280;67668;52.294;4.692;2023-05-07T06:22:24;101766.94;;;16.11;75.00
78383;BME280;67668;52.294;4.692;2023-05-07T06:24:50;101757.06;;;16.11;75.08
78383;BME280;67668;52.294;4.692;2023-05-07T06:27:15;101757.91;;;16.12;74.99
78383;BME280;67668;52.294;4.692;2023-05-07T06:29:41;101752.56;;;16.12;74.77
78383;BME280;67668;52.294;4.692;2023-05-07T06:32:11;101761.59;;;16.11;75.07
78383;BME280;67668;52.294;4.692;2023-05-07T06:34:37;101760.56;;;16.12;74.88
78383;BME280;67668;52.294;4.692;2023-05-07T06:37:03;101760.75;;;16.10;75.90
78383;BME280;67668;52.294;4.692;2023-05-07T06:39:29;101765.06;;;16.11;75.46
78383;BME280;67668;52.294;4.692;2023-05-07T06:41:54;101763.09;;;16.13;75.79
78383;BME280;67668;52.294;4.692;2023-05-07T06:44:20;101762.09;;;16.14;76.48
78383;BME280;67668;52.294;4.692;2023-05-07T06:46:45;101760.13;;;16.16;76.44
78383;BME280;67668;52.294;4.692;2023-05-07T06:49:15;101759.94;;;16.18;76.35
78383;BME280;67668;52.294;4.692;2023-05-07T06:51:40;101755.31;;;16.20;76.40
78383;BME280;67668;52.294;4.692;2023-05-07T06:54:06;101758.50;;;16.23;76.51
78383;BME280;67668;52.294;4.692;2023-05-07T06:56:32;101749.34;;;16.26;76.40
78383;BME280;67668;52.294;4.692;2023-05-07T06:58:57;101754.91;;;16.32;77.69
78383;BME280;67668;52.294;4.692;2023-05-07T07:01:23;101765.94;;;16.37;76.99
78383;BME280;67668;52.294;4.692;2023-05-07T07:03:48;101758.97;;;16.44;75.63
78383;BME280;67668;52.294;4.692;2023-05-07T07:06:14;101764.00;;;16.47;75.42
78383;BME280;67668;52.294;4.692;2023-05-07T07:08:59;101765.22;;;16.53;75.28
78383;BME280;67668;52.294;4.692;2023-05-07T07:11:25;101759.94;;;16.61;75.64
78383;BME280;67668;52.294;4.692;2023-05-07T07:13:52;101762.03;;;16.75;77.95
78383;BME280;67668;52.294;4.692;2023-05-07T07:16:20;101759.25;;;16.85;76.17
78383;BME280;67668;52.294;4.692;2023-05-07T07:18:45;101763.47;;;16.95;75.74
78383;BME280;67668;52.294;4.692;2023-05-07T07:21:13;101755.47;;;17.03;75.89
78383;BME280;67668;52.294;4.692;2023-05-07T07:23:38;101762.53;;;17.13;75.21
78383;BME280;67668;52.294;4.692;2023-05-07T07:26:05;101762.22;;;17.24;74.42
78383;BME280;67668;52.294;4.692;2023-05-07T07:28:31;101762.13;;;17.33;74.58
78383;BME280;67668;52.294;4.692;2023-05-07T07:30:57;101762.63;;;17.45;73.81
78383;BME280;67668;52.294;4.692;2023-05-07T07:33:22;101758.97;;;17.54;73.50
78383;BME280;67668;52.294;4.692;2023-05-07T07:35:48;101766.88;;;17.64;73.45
78383;BME280;67668;52.294;4.692;2023-05-07T07:38:13;101773.78;;;17.82;75.78
78383;BME280;67668;52.294;4.692;2023-05-07T07:40:39;101772.44;;;17.94;71.92
78383;BME280;67668;52.294;4.692;2023-05-07T07:43:04;101771.63;;;18.02;71.38
78383;BME280;67668;52.294;4.692;2023-05-07T07:45:31;101773.28;;;18.11;70.99
78383;BME280;67668;52.294;4.692;2023-05-07T07:47:57;101768.25;;;18.16;69.92
78383;BME280;67668;52.294;4.692;2023-05-07T07:50:23;101766.06;;;18.20;71.49
78383;BME280;67668;52.294;4.692;2023-05-07T07:52:48;101769.94;;;18.25;70.24
78383;BME280;67668;52.294;4.692;2023-05-07T07:55:14;101770.75;;;18.34;70.21
78383;BME280;67668;52.294;4.692;2023-05-07T07:57:43;101766.72;;;18.46;70.51
78383;BME280;67668;52.294;4.692;2023-05-07T08:00:09;101768.56;;;18.53;70.17
78383;BME280;67668;52.294;4.692;2023-05-07T08:02:34;101774.06;;;18.60;69.92
78383;BME280;67668;52.294;4.692;2023-05-07T08:04:59;101776.41;;;18.63;68.79
78383;BME280;67668;52.294;4.692;2023-05-07T08:07:25;101777.25;;;18.72;69.44
78383;BME280;67668;52.294;4.692;2023-05-07T08:10:10;101777.69;;;18.83;67.85
78383;BME280;67668;52.294;4.692;2023-05-07T08:12:36;101770.63;;;18.90;68.25
78383;BME280;67668;52.294;4.692;2023-05-07T08:15:01;101768.09;;;18.97;67.50
78383;BME280;67668;52.294;4.692;2023-05-07T08:17:26;101768.72;;;19.07;67.44
78383;BME280;67668;52.294;4.692;2023-05-07T08:19:52;101777.06;;;19.20;66.51
78383;BME280;67668;52.294;4.692;2023-05-07T08:22:17;101772.81;;;19.26;66.92
78383;BME280;67668;52.294;4.692;2023-05-07T08:24:43;101766.06;;;19.38;67.14
78383;BME280;67668;52.294;4.692;2023-05-07T08:27:10;101772.72;;;19.50;65.92
78383;BME280;67668;52.294;4.692;2023-05-07T08:29:36;101777.50;;;19.63;66.51
78383;BME280;67668;52.294;4.692;2023-05-07T08:32:01;101783.13;;;19.76;66.96
78383;BME280;67668;52.294;4.692;2023-05-07T08:34:27;101783.56;;;19.87;66.30
78383;BME280;67668;52.294;4.692;2023-05-07T08:36:52;101790.19;;;19.99;64.38
78383;BME280;67668;52.294;4.692;2023-05-07T08:39:18;101796.16;;;20.09;66.11
78383;BME280;67668;52.294;4.692;2023-05-07T08:41:48;101788.31;;;20.23;64.63
78383;BME280;67668;52.294;4.692;2023-05-07T08:44:13;101793.75;;;20.37;64.31
78383;BME280;67668;52.294;4.692;2023-05-07T08:46:39;101789.13;;;20.46;64.05
78383;BME280;67668;52.294;4.692;2023-05-07T08:49:05;101792.41;;;20.56;63.28
78383;BME280;67668;52.294;4.692;2023-05-07T08:51:31;101793.44;;;20.70;63.31
78383;BME280;67668;52.294;4.692;2023-05-07T08:53:56;101794.84;;;20.80;62.96
78383;BME280;67668;52.294;4.692;2023-05-07T08:56:22;101791.31;;;20.94;62.04
78383;BME280;67668;52.294;4.692;2023-05-07T08:58:48;101797.03;;;21.06;60.44
78383;BME280;67668;52.294;4.692;2023-05-07T09:01:15;101792.88;;;21.18;60.89
78383;BME280;67668;52.294;4.692;2023-05-07T09:03:46;101802.63;;;21.34;61.71
78383;BME280;67668;52.294;4.692;2023-05-07T09:06:12;101798.41;;;21.46;60.76
78383;BME280;67668;52.294;4.692;2023-05-07T09:08:57;101800.63;;;21.57;60.26
78383;BME280;67668;52.294;4.692;2023-05-07T09:11:43;101803.63;;;21.69;59.95
78383;BME280;67668;52.294;4.692;2023-05-07T09:14:29;101803.97;;;21.80;58.92
78383;BME280;67668;52.294;4.692;2023-05-07T09:17:16;101805.69;;;21.88;58.84
78383;BME280;67668;52.294;4.692;2023-05-07T09:20:05;101799.16;;;21.90;56.91
78383;BME280;67668;52.294;4.692;2023-05-07T09:22:40;101801.69;;;21.98;58.91
78383;BME280;67668;52.294;4.692;2023-05-07T09:25:06;101799.50;;;22.08;56.61
78383;BME280;67668;52.294;4.692;2023-05-07T09:27:32;101796.03;;;22.14;55.60
78383;BME280;67668;52.294;4.692;2023-05-07T09:29:57;101785.75;;;22.25;57.83
78383;BME280;67668;52.294;4.692;2023-05-07T09:32:24;101798.66;;;22.29;57.11
78383;BME280;67668;52.294;4.692;2023-05-07T09:34:50;101800.63;;;22.42;56.05
78383;BME280;67668;52.294;4.692;2023-05-07T09:37:16;101801.94;;;22.52;54.96
78383;BME280;67668;52.294;4.692;2023-05-07T09:39:44;101802.91;;;22.66;56.22
78383;BME280;67668;52.294;4.692;2023-05-07T09:42:10;101804.41;;;22.75;55.32
78383;BME280;67668;52.294;4.692;2023-05-07T09:44:45;101806.13;;;22.83;55.48
78383;BME280;67668;52.294;4.692;2023-05-07T09:47:11;101807.41;;;22.87;52.91
78383;BME280;67668;52.294;4.692;2023-05-07T09:49:42;101811.22;;;22.99;54.10
78383;BME280;67668;52.294;4.692;2023-05-07T09:52:13;101804.38;;;23.03;52.00
78383;BME280;67668;52.294;4.692;2023-05-07T09:54:40;101800.66;;;23.10;53.13
78383;BME280;67668;52.294;4.692;2023-05-07T09:57:10;101800.94;;;23.22;53.64
78383;BME280;67668;52.294;4.692;2023-05-07T09:59:37;101793.91;;;23.34;54.13
78383;BME280;67668;52.294;4.692;2023-05-07T10:02:04;101789.97;;;23.37;52.43
78383;BME280;67668;52.294;4.692;2023-05-07T10:04:50;101795.66;;;23.48;51.83
78383;BME280;67668;52.294;4.692;2023-05-07T10:07:16;101795.09;;;23.66;53.57
78383;BME280;67668;52.294;4.692;2023-05-07T10:10:02;101806.97;;;23.78;50.98
78383;BME280;67668;52.294;4.692;2023-05-07T10:12:49;101803.44;;;23.84;51.32
78383;BME280;67668;52.294;4.692;2023-05-07T10:15:36;101810.56;;;23.98;52.48
78383;BME280;67668;52.294;4.692;2023-05-07T10:18:22;101805.81;;;24.13;52.03
78383;BME280;67668;52.294;4.692;2023-05-07T10:21:13;101808.72;;;24.25;50.42
78383;BME280;67668;52.294;4.692;2023-05-07T10:24:20;101805.59;;;24.35;50.57
78383;BME280;67668;52.294;4.692;2023-05-07T10:27:11;101805.00;;;24.46;51.45
78383;BME280;67668;52.294;4.692;2023-05-07T10:30:21;101804.16;;;24.52;50.21
78383;BME280;67668;52.294;4.692;2023-05-07T10:33:13;101818.91;;;24.69;50.37
78383;BME280;67668;52.294;4.692;2023-05-07T10:35:45;101811.16;;;24.79;50.67
78383;BME280;67668;52.294;4.692;2023-05-07T10:38:31;101812.00;;;24.73;49.10
78383;BME280;67668;52.294;4.692;2023-05-07T10:41:04;101809.53;;;24.85;49.83
78383;BME280;67668;52.294;4.692;2023-05-07T10:43:50;101813.03;;;24.98;49.73
78383;BME280;67668;52.294;4.692;2023-05-07T10:46:20;101814.66;;;25.06;48.77
78383;BME280;67668;52.294;4.692;2023-05-07T10:51:32;101814.00;;;25.17;48.30
78383;BME280;67668;52.294;4.692;2023-05-07T10:56:42;101819.59;;;25.35;46.37
78383;BME280;67668;52.294;4.692;2023-05-07T11:01:53;101816.81;;;25.48;47.97
78383;BME280;67668;52.294;4.692;2023-05-07T11:04:39;101823.03;;;25.55;46.40
78383;BME280;67668;52.294;4.692;2023-05-07T11:07:28;101824.69;;;25.63;47.55
78383;BME280;67668;52.294;4.692;2023-05-07T11:10:14;101829.88;;;25.71;46.21
78383;BME280;67668;52.294;4.692;2023-05-07T11:12:59;101818.00;;;25.65;43.77
78383;BME280;67668;52.294;4.692;2023-05-07T11:15:46;101814.63;;;25.70;45.20
78383;BME280;67668;52.294;4.692;2023-05-07T11:18:49;101815.00;;;25.80;46.60
78383;BME280;67668;52.294;4.692;2023-05-07T11:24:21;101829.50;;;25.92;47.31
78383;BME280;67668;52.294;4.692;2023-05-07T11:27:07;101824.88;;;25.99;47.36
78383;BME280;67668;52.294;4.692;2023-05-07T11:29:33;101823.84;;;26.00;48.17
78383;BME280;67668;52.294;4.692;2023-05-07T11:31:59;101828.72;;;25.92;44.88
78383;BME280;67668;52.294;4.692;2023-05-07T11:34:26;101819.28;;;25.94;47.29
78383;BME280;67668;52.294;4.692;2023-05-07T11:36:52;101821.16;;;25.94;47.14
78383;BME280;67668;52.294;4.692;2023-05-07T11:41:53;101817.00;;;25.91;46.25
78383;BME280;67668;52.294;4.692;2023-05-07T11:44:18;101815.94;;;25.92;46.46
78383;BME280;67668;52.294;4.692;2023-05-07T11:46:44;101825.31;;;25.96;47.50
78383;BME280;67668;52.294;4.692;2023-05-07T11:49:10;101822.00;;;25.94;47.83
78383;BME280;67668;52.294;4.692;2023-05-07T11:51:36;101828.47;;;25.93;47.11
78383;BME280;67668;52.294;4.692;2023-05-07T11:54:03;101824.72;;;25.94;47.95
78383;BME280;67668;52.294;4.692;2023-05-07T11:56:34;101835.16;;;25.91;46.61
78383;BME280;67668;52.294;4.692;2023-05-07T11:58:59;101830.78;;;25.90;47.25
78383;BME280;67668;52.294;4.692;2023-05-07T12:01:25;101829.94;;;25.89;46.44
78383;BME280;67668;52.294;4.692;2023-05-07T12:03:50;101832.06;;;25.87;47.58
78383;BME280;67668;52.294;4.692;2023-05-07T12:06:16;101830.38;;;25.86;46.40
78383;BME280;67668;52.294;4.692;2023-05-07T12:08:43;101833.72;;;25.88;47.28
78383;BME280;67668;52.294;4.692;2023-05-07T12:11:13;101833.09;;;25.86;46.93
78383;BME280;67668;52.294;4.692;2023-05-07T12:13:41;101832.66;;;25.89;48.19
78383;BME280;67668;52.294;4.692;2023-05-07T12:16:07;101829.16;;;25.82;46.36
78383;BME280;67668;52.294;4.692;2023-05-07T12:18:35;101830.81;;;25.83;47.89
78383;BME280;67668;52.294;4.692;2023-05-07T12:21:01;101836.03;;;25.85;46.58
78383;BME280;67668;52.294;4.692;2023-05-07T12:23:26;101839.38;;;25.87;47.24
78383;BME280;67668;52.294;4.692;2023-05-07T12:25:52;101834.16;;;25.85;47.41
78383;BME280;67668;52.294;4.692;2023-05-07T12:28:18;101835.00;;;25.79;47.54
78383;BME280;67668;52.294;4.692;2023-05-07T12:30:48;101840.25;;;25.81;47.53
78383;BME280;67668;52.294;4.692;2023-05-07T12:33:24;101836.09;;;25.78;47.42
78383;BME280;67668;52.294;4.692;2023-05-07T12:35:49;101843.00;;;25.74;47.65
78383;BME280;67668;52.294;4.692;2023-05-07T12:38:17;101840.88;;;25.76;48.12
78383;BME280;67668;52.294;4.692;2023-05-07T12:40:54;101839.25;;;25.75;48.21
78383;BME280;67668;52.294;4.692;2023-05-07T12:43:29;101840.72;;;25.71;44.94
78383;BME280;67668;52.294;4.692;2023-05-07T12:45:56;101837.56;;;25.74;47.79
78383;BME280;67668;52.294;4.692;2023-05-07T12:48:22;101842.78;;;25.69;46.56
78383;BME280;67668;52.294;4.692;2023-05-07T12:50:52;101842.34;;;25.72;47.91
78383;BME280;67668;52.294;4.692;2023-05-07T12:53:21;101845.31;;;25.70;46.03
78383;BME280;67668;52.294;4.692;2023-05-07T12:55:49;101848.41;;;25.74;48.08
78383;BME280;67668;52.294;4.692;2023-05-07T13:00:41;101852.97;;;25.80;48.45
78383;BME280;67668;52.294;4.692;2023-05-07T13:03:08;101850.47;;;25.79;47.87
78383;BME280;67668;52.294;4.692;2023-05-07T13:05:33;101860.50;;;25.78;48.05
78383;BME280;67668;52.294;4.692;2023-05-07T13:07:59;101869.06;;;25.75;47.72
78383;BME280;67668;52.294;4.692;2023-05-07T13:10:25;101863.44;;;25.70;47.00
78383;BME280;67668;52.294;4.692;2023-05-07T13:12:51;101866.59;;;25.67;47.73
78383;BME280;67668;52.294;4.692;2023-05-07T13:15:17;101866.00;;;25.65;47.73